Terminal Aerodrome Forecast
Issued by NWS

Current Version | Previous Version | Text Only | Print | Product List | Glossary On
Versions: 1 2 3 4 5 6 7 8 9 10 11 12 13 14 15 16
131
FTUS41 KBTV 241741
TAFSLK
TAF
KSLK 241741Z 2418/2518 12010KT 6SM -SHRA BR SCT015 OVC030
      TEMPO 2418/2422 3SM -SHRA BR OVC015
     FM242300 12007KT 6SM BR VCSH OVC025
     FM250400 11006KT 4SM BR VCSH OVC015
     FM250800 09005KT 2SM BR VCSH OVC007
     FM251300 07005KT P6SM VCSH OVC015
     FM251600 07005KT P6SM OVC025=

USA.gov is the U.S. government's official web portal to all federal, state and local government web resources and services.